createdAt,value
2023-05-19T00:00:00.599Z,94.4
2023-05-19T00:10:00.707Z,95.8
2023-05-19T00:20:00.603Z,95.8
2023-05-19T00:30:00.625Z,96.4
2023-05-19T00:40:00.672Z,96.5
2023-05-19T00:50:00.643Z,96.4
2023-05-19T01:00:00.628Z,96.6
2023-05-19T01:10:00.620Z,97.3
2023-05-19T01:20:00.814Z,96.8
2023-05-19T01:30:00.594Z,97.0
2023-05-19T01:40:00.585Z,97.2
2023-05-19T01:50:00.605Z,97.4
2023-05-19T02:00:00.607Z,97.7
2023-05-19T02:10:00.623Z,97.6
2023-05-19T02:20:00.586Z,97.5
2023-05-19T02:30:00.687Z,97.5
2023-05-19T02:40:00.608Z,97.2
2023-05-19T02:50:00.580Z,97.2
2023-05-19T03:00:00.605Z,97.6
2023-05-19T03:10:00.623Z,97.6
2023-05-19T03:20:00.613Z,98.2
2023-05-19T03:30:00.614Z,98.1
2023-05-19T03:40:00.698Z,97.3
2023-05-19T03:50:00.600Z,97.2
2023-05-19T04:00:00.618Z,97.5
2023-05-19T04:10:00.614Z,97.6
2023-05-19T04:20:00.598Z,98.0
2023-05-19T04:30:00.618Z,97.9
2023-05-19T04:40:00.717Z,98.2
2023-05-19T04:50:00.855Z,100.0
2023-05-19T05:00:01.769Z,93.4
2023-05-19T05:10:00.648Z,96.2
2023-05-19T05:20:00.703Z,91.4
2023-05-19T07:40:00.726Z,71.5
2023-05-19T08:00:00.677Z,69.6
2023-05-19T08:10:00.467Z,64.4
2023-05-19T08:20:00.438Z,63.8
2023-05-19T08:30:00.450Z,64.0
2023-05-19T08:40:00.435Z,63.6
2023-05-19T08:50:00.554Z,64.8
2023-05-19T09:00:00.451Z,59.0
2023-05-19T09:40:00.677Z,49.7
2023-05-19T09:50:00.673Z,50.3
2023-05-19T10:00:00.805Z,48.9
2023-05-19T10:20:00.602Z,50.3
2023-05-19T10:30:00.434Z,48.0
2023-05-19T10:40:00.394Z,48.1
2023-05-19T11:00:00.667Z,39.8
2023-05-19T11:10:00.742Z,46.1
2023-05-19T11:20:00.593Z,52.9
2023-05-19T11:30:00.582Z,50.9
2023-05-19T11:40:00.572Z,46.1
2023-05-19T11:50:00.588Z,45.9
2023-05-19T12:00:00.578Z,46.4
2023-05-19T12:10:00.653Z,39.6
2023-05-19T12:20:00.748Z,41.5
2023-05-19T12:30:00.593Z,40.8
2023-05-19T12:40:00.587Z,42.2
2023-05-19T12:50:00.598Z,41.3
2023-05-19T13:00:02.412Z,45.0
2023-05-19T13:10:00.625Z,48.5
2023-05-19T13:20:00.656Z,47.1
2023-05-19T13:30:00.660Z,44.7
2023-05-19T13:40:00.608Z,46.5
2023-05-19T13:50:00.587Z,42.7
2023-05-19T14:00:03.222Z,41.6
2023-05-19T14:10:00.589Z,40.9
2023-05-19T14:20:00.621Z,42.1
2023-05-19T14:30:00.645Z,40.4
2023-05-19T14:40:06.324Z,38.6
2023-05-19T14:50:00.593Z,43.3
2023-05-19T15:00:00.594Z,45.0
2023-05-19T15:10:00.609Z,47.8
2023-05-19T15:20:00.594Z,46.9
2023-05-19T15:30:00.705Z,47.0
2023-05-19T15:40:00.644Z,49.2
2023-05-19T15:50:00.761Z,48.0
2023-05-19T16:00:00.608Z,50.3
2023-05-19T16:10:00.590Z,55.8
2023-05-19T16:20:00.562Z,62.5
2023-05-19T16:30:00.589Z,65.5
2023-05-19T16:40:00.623Z,67.6
2023-05-19T16:50:00.571Z,68.9
2023-05-19T17:00:00.924Z,68.6
2023-05-19T17:10:00.614Z,71.2
2023-05-19T17:20:00.560Z,74.0
2023-05-19T17:30:00.585Z,78.6
2023-05-19T17:40:00.608Z,79.7
2023-05-19T17:50:00.583Z,81.9
2023-05-19T18:00:00.707Z,84.3
2023-05-19T18:10:00.558Z,84.7
2023-05-19T18:20:00.554Z,85.6
2023-05-19T18:30:00.579Z,87.2
2023-05-19T18:40:00.625Z,88.4
2023-05-19T18:50:00.545Z,88.7
2023-05-19T19:00:00.576Z,89.5
2023-05-19T19:10:00.565Z,89.3
2023-05-19T19:20:00.615Z,88.7
2023-05-19T19:30:00.586Z,89.9
2023-05-19T19:40:00.616Z,91.1
2023-05-19T19:50:00.587Z,91.6
2023-05-19T20:00:00.616Z,93.1
2023-05-19T20:10:00.579Z,92.6
2023-05-19T20:20:00.574Z,91.5
2023-05-19T20:30:00.562Z,90.6
2023-05-19T20:40:00.629Z,91.9
2023-05-19T20:50:00.566Z,91.8
2023-05-19T21:00:00.594Z,91.8
2023-05-19T21:10:01.751Z,92.0
2023-05-19T21:20:00.571Z,92.8
2023-05-19T21:30:00.576Z,93.0
2023-05-19T21:40:00.644Z,90.7
2023-05-19T21:50:00.597Z,87.0
2023-05-19T22:00:00.613Z,84.7
2023-05-19T22:10:00.607Z,86.4
2023-05-19T22:20:00.612Z,86.8
2023-05-19T22:30:00.602Z,84.2
2023-05-19T22:40:00.619Z,83.9
2023-05-19T22:50:00.580Z,84.0
2023-05-19T23:00:00.616Z,82.2
2023-05-19T23:10:00.582Z,81.3
2023-05-19T23:20:00.617Z,81.1
2023-05-19T23:30:00.571Z,83.2
2023-05-19T23:40:00.572Z,85.4
2023-05-19T23:50:00.559Z,86.3
